createdAt,value
2022-09-26T00:01:18.715Z,97639.12505487603
2022-09-26T00:04:22.965Z,97629.38629456967
2022-09-26T00:07:16.998Z,97623.92280300817
2022-09-26T00:11:18.920Z,97618.3523086902
2022-09-26T00:14:19.170Z,97610.85825150735
2022-09-26T00:17:16.724Z,97609.22149553435
2022-09-26T00:21:17.192Z,97599.75516676853
2022-09-26T00:24:17.728Z,97591.62867174807
2022-09-26T00:27:17.008Z,97589.18063824897
2022-09-26T00:31:19.750Z,97580.03040545236
2022-09-26T00:34:18.767Z,97582.70271641537
2022-09-26T00:37:16.889Z,97596.64172796148
2022-09-26T00:41:17.783Z,97600.13670920103
2022-09-26T00:44:50.863Z,97598.98897681673
2022-09-26T00:47:24.173Z,97594.08820136527
2022-09-26T00:51:16.539Z,97591.4616101325
2022-09-26T00:54:18.878Z,97592.31030709355
2022-09-26T00:57:21.639Z,97589.912309402
2022-09-26T01:01:18.263Z,97590.6423242153
2022-09-26T01:04:17.085Z,97588.5323251744
2022-09-26T01:07:20.022Z,97580.84462036779
2022-09-26T01:11:17.154Z,97573.36834405815
2022-09-26T01:14:16.363Z,97573.30404017515
2022-09-26T01:17:16.618Z,97563.58162511236
2022-09-26T01:22:26.706Z,97557.01953433239
2022-09-26T01:24:46.659Z,97556.13172050775
2022-09-26T01:28:40.367Z,97548.56972077777
2022-09-26T01:31:27.105Z,97539.28507682712
2022-09-26T01:34:25.226Z,97536.83029556993
2022-09-26T01:37:27.094Z,97533.72047440497
2022-09-26T01:41:30.692Z,97517.96364561231
2022-09-26T01:44:27.986Z,97510.03414222156
2022-09-26T01:47:22.031Z,97501.10855723135
2022-09-26T01:51:22.132Z,97502.800633468
2022-09-26T01:54:21.011Z,97491.82207136584
2022-09-26T01:57:22.732Z,97499.4690674626
2022-09-26T02:01:20.733Z,97499.9834794749
2022-09-26T02:04:22.291Z,97498.51951362636
2022-09-26T02:07:20.721Z,97504.70293233109
2022-09-26T02:11:18.907Z,97504.00031913343
2022-09-26T02:14:21.242Z,97496.38776897077
2022-09-26T02:17:20.765Z,97493.82334425196
2022-09-26T02:21:20.010Z,97481.3860335252
2022-09-26T02:24:17.179Z,97476.0830166148
2022-09-26T02:27:16.941Z,97478.19352785857
2022-09-26T02:31:25.769Z,97478.208153442
2022-09-26T02:34:17.318Z,97469.97142786045
2022-09-26T02:37:20.115Z,97474.61156610903
2022-09-26T02:41:27.030Z,97476.18936850995
2022-09-26T02:45:06.454Z,97472.52028207967
2022-09-26T02:47:36.830Z,97460.28969459064
2022-09-26T02:51:31.114Z,97468.20126465496
2022-09-26T02:54:24.870Z,97467.65487213715
2022-09-26T02:57:29.034Z,97464.77729116654
2022-09-26T03:01:20.939Z,97467.22886723567
2022-09-26T03:04:26.790Z,97463.4470968573
2022-09-26T03:07:30.055Z,97458.63161187271
2022-09-26T03:11:21.288Z,97453.54434703535
2022-09-26T03:14:18.158Z,97451.58548056631
2022-09-26T03:17:18.045Z,97458.29548414762
2022-09-26T03:21:17.485Z,97452.41533978801
2022-09-26T03:24:17.703Z,97449.99925440359
2022-09-26T03:27:17.884Z,97447.55187115386
2022-09-26T03:31:16.910Z,97434.41995484929
2022-09-26T03:34:17.272Z,97424.49769923442
2022-09-26T03:37:18.091Z,97418.69900317575
2022-09-26T03:41:17.185Z,97417.02336915807
2022-09-26T03:51:17.273Z,97394.9528965819
2022-09-26T03:54:17.023Z,97399.146430753
2022-09-26T03:57:17.478Z,97392.04612154239
2022-09-26T04:01:19.513Z,97395.9664628139
2022-09-26T04:04:17.054Z,97395.21646918656
2022-09-26T04:07:17.088Z,97390.93190506325
2022-09-26T04:11:18.234Z,97394.39373122685
2022-09-26T04:14:16.616Z,97389.44332944941
2022-09-26T04:17:16.364Z,97384.69813762313
2022-09-26T04:21:16.379Z,97386.21172357925
2022-09-26T04:24:17.465Z,97395.28580640873
2022-09-26T04:27:16.764Z,97390.08190080964
2022-09-26T04:31:16.412Z,97388.85519618704
2022-09-26T04:34:16.750Z,97386.39866518257
2022-09-26T04:37:16.794Z,97389.7233923643
2022-09-26T04:41:18.178Z,97393.88328202043
2022-09-26T04:44:16.314Z,97396.84216027372
2022-09-26T04:47:17.273Z,97402.50677213143
2022-09-26T04:51:18.907Z,97396.38143755413
2022-09-26T04:54:16.674Z,97397.72638774112
2022-09-26T04:57:19.662Z,97403.16917554506
2022-09-26T05:01:18.603Z,97404.16521568876
2022-09-26T05:04:16.783Z,97404.61480462167
2022-09-26T05:07:16.840Z,97403.1591989534
2022-09-26T05:11:18.198Z,97412.63459567551
2022-09-26T05:14:16.713Z,97403.49260308615
2022-09-26T05:17:16.777Z,97408.8624089602
2022-09-26T05:21:16.582Z,97405.81255079035
2022-09-26T05:31:16.786Z,97404.26589755293
2022-09-26T05:34:19.936Z,97403.64337298652
2022-09-26T05:37:16.494Z,97406.45857567943
2022-09-26T05:41:16.754Z,97416.38522037772
2022-09-26T05:44:16.433Z,97415.3304415709
2022-09-26T05:47:16.543Z,97406.2558427934
2022-09-26T05:51:18.837Z,97401.21268724497
2022-09-26T05:54:16.910Z,97394.8684958387
2022-09-26T05:57:16.969Z,97395.60125297046
2022-09-26T06:01:18.271Z,97399.91086456963
2022-09-26T06:04:17.489Z,97401.29721635439
2022-09-26T06:07:17.412Z,97398.24401262194
2022-09-26T06:11:17.835Z,97398.51720590392
2022-09-26T06:14:16.571Z,97403.40830666278
2022-09-26T06:17:16.551Z,97406.79241051862
2022-09-26T06:21:18.220Z,97402.56494666965
2022-09-26T06:24:19.621Z,97402.70779658304
2022-09-26T06:27:16.924Z,97398.66774473562
2022-09-26T06:31:18.560Z,97413.05961795076
2022-09-26T06:34:16.945Z,97419.93998612379
2022-09-26T06:37:16.955Z,97413.75468748978
2022-09-26T06:41:16.918Z,97416.4333267376
2022-09-26T06:44:17.328Z,97414.79195228365
2022-09-26T06:47:16.780Z,97410.69783837939
2022-09-26T06:51:16.376Z,97411.39163705036
2022-09-26T06:54:16.990Z,97414.1822956303
2022-09-26T06:57:16.797Z,97408.1781449582
2022-09-26T07:01:17.096Z,97402.28000745001
2022-09-26T07:04:18.642Z,97401.28432040152
2022-09-26T07:07:17.081Z,97407.80426550334
2022-09-26T07:11:35.244Z,97403.4701729158
2022-09-26T07:14:17.750Z,97402.45087986092
2022-09-26T07:17:17.291Z,97408.48811535523
2022-09-26T07:21:16.493Z,97406.20378260089
2022-09-26T07:31:15.858Z,97406.60897822725
2022-09-26T07:34:18.633Z,97398.71787433157
2022-09-26T07:37:17.609Z,97399.11534717253
2022-09-26T07:41:17.558Z,97399.6382469885
2022-09-26T07:51:16.745Z,97404.30643283913
2022-09-26T07:54:18.209Z,97410.28858082597
2022-09-26T08:01:16.865Z,97414.0937106463
2022-09-26T08:11:18.320Z,97420.83217323358
2022-09-26T08:14:16.852Z,97408.41710445983
2022-09-26T08:17:17.116Z,97400.13047725766
2022-09-26T08:21:16.028Z,97411.97207129715
2022-09-26T08:24:16.597Z,97413.91566858487
2022-09-26T08:31:17.880Z,97408.91793986286
2022-09-26T08:34:21.336Z,97399.5766630645
2022-09-26T08:37:17.167Z,97395.17526504186
2022-09-26T08:41:35.615Z,97394.56004177472
2022-09-26T08:44:39.123Z,97388.68359413672
2022-09-26T08:47:27.700Z,97391.52293930009
2022-09-26T08:51:29.030Z,97393.47246355991
2022-09-26T08:54:18.857Z,97397.7854669503
2022-09-26T08:57:26.925Z,97397.87091210754
2022-09-26T09:01:23.422Z,97403.91994543288
2022-09-26T09:04:23.206Z,97390.47369806979
2022-09-26T09:07:21.528Z,97384.98976663186
2022-09-26T09:11:31.671Z,97403.66020746117
2022-09-26T09:14:35.560Z,97406.9247673027
2022-09-26T09:17:26.797Z,97412.5490494575
2022-09-26T09:21:26.631Z,97409.40419058863
2022-09-26T09:24:23.241Z,97411.66896594976
2022-09-26T09:27:54.410Z,97411.59334512269
2022-09-26T09:31:16.459Z,97397.45499724682
2022-09-26T09:34:23.077Z,97405.92299316042
2022-09-26T09:41:19.557Z,97395.3272779346
2022-09-26T09:44:37.339Z,97391.46667260092
2022-09-26T09:47:18.079Z,97394.15174990126
2022-09-26T09:51:33.252Z,97392.28165151703
2022-09-26T09:54:29.717Z,97393.39294407649
2022-09-26T09:57:31.403Z,97392.90914568504
2022-09-26T10:01:23.530Z,97391.58593828247
2022-09-26T10:04:33.743Z,97383.63966581489
2022-09-26T10:07:16.465Z,97384.56434519218
2022-09-26T10:11:26.008Z,97387.19246350885
2022-09-26T10:14:26.541Z,97386.1807804891
2022-09-26T10:21:16.611Z,97381.55923131715
2022-09-26T10:24:23.157Z,97376.12038363134
2022-09-26T10:27:22.574Z,97373.40396260207
2022-09-26T10:31:23.601Z,97374.25280908206
2022-09-26T10:34:23.987Z,97369.92736104749
2022-09-26T10:37:21.979Z,97361.82747647027
2022-09-26T10:41:23.590Z,97356.2395674467
2022-09-26T10:44:23.049Z,97361.10222992176
2022-09-26T10:51:21.686Z,97363.08605913677
2022-09-26T10:54:21.224Z,97359.89344199095
2022-09-26T10:57:20.928Z,97359.92538509493
2022-09-26T11:01:19.329Z,97356.24897526356
2022-09-26T11:05:56.334Z,97356.06037251824
2022-09-26T11:07:21.934Z,97355.8664590506
2022-09-26T11:11:16.650Z,97349.350827018
2022-09-26T11:14:27.879Z,97351.60220004841
2022-09-26T11:17:16.641Z,97347.39669123742
2022-09-26T11:21:29.096Z,97336.91419854219
2022-09-26T11:24:24.019Z,97322.5217447206
2022-09-26T11:27:28.058Z,97314.12795393946
2022-09-26T11:31:24.912Z,97310.16022433748
2022-09-26T11:34:24.996Z,97310.71593889971
2022-09-26T11:37:27.542Z,97303.29754552865
2022-09-26T11:41:31.768Z,97302.38050407862
2022-09-26T11:44:54.462Z,97310.19664844823
2022-09-26T11:51:33.043Z,97300.38609337756
2022-09-26T11:54:30.151Z,97299.0240706425
2022-09-26T11:57:33.674Z,97292.40200123025
2022-09-26T12:01:28.203Z,97289.82355568487
2022-09-26T12:04:34.105Z,97284.36701914817
2022-09-26T12:07:22.411Z,97281.14479967156
2022-09-26T12:11:27.196Z,97278.81701395001
2022-09-26T12:14:36.222Z,97272.27317121938
2022-09-26T12:17:22.708Z,97263.03187073805
2022-09-26T12:21:25.031Z,97256.56808874686
2022-09-26T12:24:26.476Z,97252.81941233765
2022-09-26T12:27:24.229Z,97247.44777898812
2022-09-26T12:31:28.934Z,97235.4088487376
2022-09-26T12:34:28.372Z,97232.90857762612
2022-09-26T12:37:43.864Z,97230.57505890481
2022-09-26T12:41:36.009Z,97223.64128315824
2022-09-26T12:44:30.495Z,97219.02984465484
2022-09-26T12:47:34.549Z,97218.77092258683
2022-09-26T12:51:29.793Z,97215.44553532745
2022-09-26T12:54:51.815Z,97218.8873133853
2022-09-26T12:57:28.691Z,97223.86147971808
2022-09-26T13:01:33.577Z,97221.87336487962
2022-09-26T13:04:28.369Z,97228.31938450327
2022-09-26T13:07:28.716Z,97235.1656469995
2022-09-26T13:11:29.233Z,97230.56222909178
2022-09-26T13:14:39.381Z,97227.7196724638
2022-09-26T13:17:21.045Z,97226.54452638967
2022-09-26T13:21:20.602Z,97220.72744040602
2022-09-26T13:24:23.538Z,97219.76726057631
2022-09-26T13:27:23.446Z,97218.22247520163
2022-09-26T13:31:23.805Z,97216.84846930765
2022-09-26T13:34:21.677Z,97218.47043131708
2022-09-26T13:37:33.875Z,97216.22683836712
2022-09-26T13:41:29.610Z,97217.09038555877
2022-09-26T13:44:27.240Z,97216.76504195259
2022-09-26T13:47:27.845Z,97211.41606236128
2022-09-26T13:51:22.710Z,97209.33499215609
2022-09-26T13:54:23.373Z,97205.23352224113
2022-09-26T13:57:37.498Z,97209.12990181854
2022-09-26T14:01:25.856Z,97208.0021354799
2022-09-26T14:04:19.231Z,97205.2869047601
2022-09-26T14:11:23.263Z,97202.94138100125
2022-09-26T14:14:23.881Z,97205.39851212178
2022-09-26T14:18:07.114Z,97210.37418720749
2022-09-26T14:21:33.421Z,97217.36387382788
2022-09-26T14:24:34.892Z,97216.0886214066
2022-09-26T14:27:27.250Z,97215.03180089286
2022-09-26T14:31:32.757Z,97221.35194444496
2022-09-26T14:34:20.981Z,97223.8063175759
2022-09-26T14:37:28.711Z,97223.34473997334
2022-09-26T14:41:19.330Z,97218.29209954105
2022-09-26T14:44:19.778Z,97220.07562556781
2022-09-26T14:47:16.697Z,97219.43109342607
2022-09-26T14:51:35.821Z,97212.2846362254
2022-09-26T14:54:21.482Z,97213.2668419226
2022-09-26T14:57:22.819Z,97209.38594994984
2022-09-26T15:01:24.431Z,97210.77518602915
2022-09-26T15:04:19.533Z,97210.34765752635
2022-09-26T15:07:21.252Z,97213.59970334578
2022-09-26T15:21:24.222Z,97218.03862617153
2022-09-26T15:24:27.110Z,97219.38776918025
2022-09-26T15:27:21.079Z,97227.92200379755
2022-09-26T15:31:20.536Z,97230.8665874677
2022-09-26T15:34:20.612Z,97227.67750465247
2022-09-26T15:37:22.865Z,97225.31003842609
2022-09-26T15:41:18.238Z,97230.8099240013
2022-09-26T15:44:21.541Z,97233.91081864889
2022-09-26T15:47:25.962Z,97232.4373286582
2022-09-26T15:51:21.667Z,97229.14819880833
2022-09-26T15:54:23.221Z,97230.38396964922
2022-09-26T15:57:16.914Z,97234.31589603337
2022-09-26T16:01:18.148Z,97233.12789052076
2022-09-26T16:04:20.929Z,97232.6873179073
2022-09-26T16:07:21.700Z,97226.13301952467
2022-09-26T16:11:16.646Z,97220.16546631439
2022-09-26T16:14:30.272Z,97214.6034358735
2022-09-26T16:17:21.315Z,97218.52645053458
2022-09-26T16:21:19.734Z,97214.98636686373
2022-09-26T16:24:27.981Z,97220.69361850241
2022-09-26T16:27:24.337Z,97217.6047569959
2022-09-26T16:31:25.538Z,97213.11943760085
2022-09-26T16:34:20.084Z,97205.1480923463
2022-09-26T16:37:18.073Z,97209.415322903
2022-09-26T16:41:42.174Z,97203.71718917826
2022-09-26T16:44:27.575Z,97207.00550378308
2022-09-26T16:47:33.169Z,97209.35990504042
2022-09-26T16:51:19.115Z,97209.64072416801
2022-09-26T16:54:19.037Z,97209.40730244775
2022-09-26T16:57:20.230Z,97212.97767573458
2022-09-26T17:02:20.996Z,97211.10592758551
2022-09-26T17:04:19.630Z,97205.15285315258
2022-09-26T17:07:16.299Z,97206.57725818885
2022-09-26T17:11:16.130Z,97213.6190523652
2022-09-26T17:14:19.731Z,97214.68951795029
2022-09-26T17:17:19.828Z,97217.4148058808
2022-09-26T17:21:16.685Z,97215.18142610215
2022-09-26T17:24:20.805Z,97214.05798539355
2022-09-26T17:27:20.690Z,97222.71315101287
2022-09-26T17:31:20.200Z,97217.00830791054
2022-09-26T17:34:16.345Z,97221.64448033647
2022-09-26T17:37:18.967Z,97221.75552245336
2022-09-26T17:41:16.080Z,97220.7016226397
2022-09-26T17:44:16.372Z,97228.16413712571
2022-09-26T17:47:18.221Z,97229.60162093618
2022-09-26T17:51:15.976Z,97232.1970389986
2022-09-26T17:54:17.847Z,97231.45266227516
2022-09-26T17:57:17.481Z,97235.65111240318
2022-09-26T18:01:21.475Z,97243.45627757856
2022-09-26T18:04:18.039Z,97246.3776870514
2022-09-26T18:07:16.339Z,97247.2714474019
2022-09-26T18:11:18.348Z,97243.32505479512
2022-09-26T18:14:17.241Z,97243.75950860824
2022-09-26T18:17:18.156Z,97242.71559266203
2022-09-26T18:21:18.543Z,97236.17419766524
2022-09-26T18:24:19.914Z,97230.74682690851
2022-09-26T18:27:17.855Z,97232.59977655877
2022-09-26T18:31:22.055Z,97233.13901509612
2022-09-26T18:34:20.014Z,97232.49616356657
2022-09-26T18:37:17.315Z,97243.2919021218
2022-09-26T18:41:21.591Z,97241.81160808803
2022-09-26T18:44:17.543Z,97241.03607525685
2022-09-26T18:47:17.283Z,97242.47413365601
2022-09-26T18:51:16.220Z,97242.69872359472
2022-09-26T18:54:16.871Z,97242.68883307291
2022-09-26T19:01:24.611Z,97240.40237829107
2022-09-26T19:04:19.250Z,97236.93941471029
2022-09-26T19:07:21.041Z,97237.94398721487
2022-09-26T19:11:18.695Z,97237.48026907555
2022-09-26T19:14:19.121Z,97242.06997192334
2022-09-26T19:17:16.899Z,97248.50852887309
2022-09-26T19:21:25.960Z,97244.70280495018
2022-09-26T19:24:27.344Z,97245.35958641084
2022-09-26T19:27:18.997Z,97251.54389585806
2022-09-26T19:31:15.936Z,97254.5618261298
2022-09-26T19:34:18.317Z,97250.95706406748
2022-09-26T19:37:16.377Z,97253.85955980972
2022-09-26T19:41:16.375Z,97257.79000113018
2022-09-26T19:44:16.961Z,97261.72396064563
2022-09-26T19:47:19.263Z,97258.34383366142
2022-09-26T19:51:17.521Z,97245.14589988069
2022-09-26T19:54:18.115Z,97257.33903376572
2022-09-26T19:57:19.433Z,97259.63524168002
2022-09-26T20:01:18.814Z,97257.25349678194
2022-09-26T20:04:18.252Z,97249.57459995591
2022-09-26T20:07:18.666Z,97256.95656504677
2022-09-26T20:11:17.668Z,97257.78833998232
2022-09-26T20:14:23.536Z,97264.44134741464
2022-09-26T20:17:22.544Z,97269.23917135733
2022-09-26T20:21:20.637Z,97264.26303702491
2022-09-26T20:24:19.080Z,97265.71515168165
2022-09-26T20:27:20.532Z,97254.0528946355
2022-09-26T20:31:20.155Z,97256.91790994727
2022-09-26T20:34:19.205Z,97258.096207255
2022-09-26T20:37:17.552Z,97252.16827627798
2022-09-26T20:41:21.739Z,97257.12470891915
2022-09-26T20:44:21.109Z,97249.39632570377
2022-09-26T20:47:19.198Z,97249.98597818022
2022-09-26T20:51:22.635Z,97244.02877393036
2022-09-26T20:54:24.902Z,97241.08827083648
2022-09-26T20:57:17.364Z,97242.16644258417
2022-09-26T21:01:19.085Z,97244.15197451656
2022-09-26T21:04:19.031Z,97240.1303952269
2022-09-26T21:07:17.155Z,97241.47731321945
2022-09-26T21:11:18.477Z,97242.54913373756
2022-09-26T21:14:16.866Z,97245.93381143404
2022-09-26T21:17:25.891Z,97251.12070096824
2022-09-26T21:21:21.685Z,97240.77820177453
2022-09-26T21:24:24.958Z,97232.37307688041
2022-09-26T21:27:17.427Z,97230.05096425475
2022-09-26T21:31:22.121Z,97228.27531024086
2022-09-26T21:34:19.708Z,97227.68796890171
2022-09-26T21:37:16.350Z,97231.92048352887
2022-09-26T21:41:15.969Z,97236.0803585491
2022-09-26T21:44:22.518Z,97230.04008961543
2022-09-26T21:47:16.459Z,97227.91933233001
2022-09-26T21:51:16.262Z,97221.6538767785
2022-09-26T21:54:21.461Z,97218.21055358437
2022-09-26T21:57:20.984Z,97215.96217198101
2022-09-26T22:01:17.031Z,97209.1421592076
2022-09-26T22:04:16.670Z,97202.33408528527
2022-09-26T22:07:16.623Z,97193.03173565354
2022-09-26T22:11:16.498Z,97193.55402836425
2022-09-26T22:14:16.851Z,97193.32864325338
2022-09-26T22:17:16.825Z,97180.69298246727
2022-09-26T22:21:15.627Z,97176.7404444994
2022-09-26T22:24:16.034Z,97167.53090041966
2022-09-26T22:27:15.995Z,97170.38885267594
2022-09-26T22:31:17.023Z,97176.60081620754
2022-09-26T22:34:16.636Z,97164.10030886765
2022-09-26T22:37:16.649Z,97158.8157369164
2022-09-26T22:41:16.256Z,97155.36707192611
2022-09-26T22:44:16.316Z,97151.13694119235
2022-09-26T22:47:16.366Z,97165.12131821012
2022-09-26T22:51:16.318Z,97167.35899911511
2022-09-26T22:54:16.222Z,97168.56357755326
2022-09-26T22:57:16.914Z,97171.63516278192
2022-09-26T23:01:18.513Z,97161.47849107956
2022-09-26T23:04:16.982Z,97159.27899864089
2022-09-26T23:07:18.503Z,97155.18699857449
2022-09-26T23:11:17.902Z,97154.07098144428
2022-09-26T23:14:16.115Z,97157.17976301914
2022-09-26T23:17:16.255Z,97154.39119185504
2022-09-26T23:21:18.441Z,97162.9824821002
2022-09-26T23:24:16.538Z,97157.75002112897
2022-09-26T23:27:16.507Z,97157.61187957252
2022-09-26T23:31:16.171Z,97140.77440144407
2022-09-26T23:34:16.485Z,97148.61368541859
2022-09-26T23:37:16.699Z,97145.34888363614
2022-09-26T23:41:15.941Z,97133.50520457633
2022-09-26T23:44:16.143Z,97142.37265479648
2022-09-26T23:47:16.305Z,97138.49424779444
2022-09-26T23:51:16.645Z,97128.68152662138
2022-09-26T23:54:17.021Z,97128.46937332563
2022-09-26T23:57:17.105Z,97133.26870079883
